createdAt,value
2023-01-25T00:02:18.341Z,1.08
2023-01-25T00:04:47.232Z,1.05
2023-01-25T00:07:15.969Z,1.04
2023-01-25T00:09:44.845Z,1.05
2023-01-25T00:12:13.547Z,1.08
2023-01-25T00:14:42.385Z,1.08
2023-01-25T00:17:12.526Z,1.07
2023-01-25T00:19:41.366Z,1.07
2023-01-25T00:22:10.176Z,1.05
2023-01-25T00:24:39.026Z,1.03
2023-01-25T00:27:07.768Z,1.04
2023-01-25T00:29:36.475Z,1.02
2023-01-25T00:32:55.906Z,1.01
2023-01-25T00:35:24.378Z,1.00
2023-01-25T00:37:55.277Z,0.99
2023-01-25T00:40:24.097Z,0.97
2023-01-25T00:42:53.225Z,0.97
2023-01-25T00:45:22.032Z,0.96
2023-01-25T00:47:55.995Z,0.97
2023-01-25T00:50:24.817Z,0.99
2023-01-25T00:52:53.493Z,0.99
2023-01-25T00:55:22.394Z,0.98
2023-01-25T00:57:51.168Z,0.99
2023-01-25T01:00:20.223Z,1.02
2023-01-25T01:02:49.379Z,1.08
2023-01-25T01:05:19.981Z,1.12
2023-01-25T01:07:51.188Z,1.12
2023-01-25T01:10:20.993Z,1.12
2023-01-25T01:12:49.695Z,1.14
2023-01-25T01:15:20.869Z,1.16
2023-01-25T01:17:49.795Z,1.16
2023-01-25T01:20:20.124Z,1.18
2023-01-25T01:22:48.998Z,1.13
2023-01-25T01:25:17.901Z,1.09
2023-01-25T01:27:46.968Z,1.06
2023-01-25T01:30:15.777Z,1.05
2023-01-25T01:32:44.641Z,1.03
2023-01-25T01:35:14.209Z,1.01
2023-01-25T01:37:45.282Z,1.03
2023-01-25T01:40:16.501Z,1.00
2023-01-25T01:43:00.588Z,0.96
2023-01-25T01:45:51.357Z,0.91
2023-01-25T01:48:34.662Z,0.93
2023-01-25T01:51:07.839Z,0.94
2023-01-25T01:53:39.445Z,0.96
2023-01-25T01:56:11.507Z,0.94
2023-01-25T01:58:42.846Z,0.91
2023-01-25T02:01:12.993Z,0.90
2023-01-25T02:03:42.845Z,0.92
2023-01-25T02:06:16.059Z,0.94
2023-01-25T02:08:46.990Z,0.99
2023-01-25T02:11:15.886Z,0.96
2023-01-25T02:13:45.227Z,0.97
2023-01-25T02:16:20.999Z,0.96
2023-01-25T02:18:49.865Z,0.99
2023-01-25T02:21:18.887Z,0.98
2023-01-25T02:23:55.762Z,0.91
2023-01-25T02:26:26.421Z,0.87
2023-01-25T02:29:00.569Z,0.85
2023-01-25T02:31:29.774Z,0.86
2023-01-25T02:33:58.570Z,0.84
2023-01-25T02:36:30.108Z,0.83
2023-01-25T02:39:03.377Z,0.81
2023-01-25T02:41:36.773Z,0.77
2023-01-25T02:44:08.275Z,0.75
2023-01-25T02:46:40.209Z,0.77
2023-01-25T02:49:11.665Z,0.82
2023-01-25T02:51:42.364Z,0.83
2023-01-25T02:54:13.311Z,0.86
2023-01-25T02:56:43.844Z,0.91
2023-01-25T02:59:13.899Z,0.87
2023-01-25T03:01:47.493Z,0.90
2023-01-25T03:04:17.128Z,0.90
2023-01-25T03:06:45.868Z,0.89
2023-01-25T03:09:14.808Z,0.93
2023-01-25T03:11:49.026Z,0.94
2023-01-25T03:14:19.777Z,0.85
2023-01-25T03:16:48.737Z,0.91
2023-01-25T03:19:19.508Z,0.89
2023-01-25T03:21:48.484Z,0.84
2023-01-25T03:24:17.346Z,0.86
2023-01-25T03:27:00.217Z,0.83
2023-01-25T03:29:35.505Z,0.80
2023-01-25T03:32:08.539Z,0.86
2023-01-25T03:34:37.772Z,0.82
2023-01-25T03:37:06.694Z,0.79
2023-01-25T03:39:37.049Z,0.72
2023-01-25T03:42:07.325Z,0.58
2023-01-25T03:44:36.219Z,0.67
2023-01-25T03:47:05.616Z,0.61
2023-01-25T03:49:35.271Z,0.62
2023-01-25T03:52:06.108Z,0.62
2023-01-25T03:54:39.338Z,0.48
2023-01-25T03:57:13.217Z,0.57
2023-01-25T03:59:52.999Z,0.49
2023-01-25T04:02:22.438Z,0.50
2023-01-25T04:04:51.483Z,0.50
2023-01-25T04:07:22.622Z,0.50
2023-01-25T04:09:51.554Z,0.49
2023-01-25T04:12:22.253Z,0.50
2023-01-25T04:14:51.388Z,0.46
2023-01-25T04:17:23.957Z,0.48
2023-01-25T04:20:01.192Z,0.40
2023-01-25T04:22:36.969Z,0.34
2023-01-25T04:25:08.848Z,0.18
2023-01-25T04:27:42.625Z,0.28
2023-01-25T04:30:15.978Z,0.19
2023-01-25T04:32:47.722Z,0.23
2023-01-25T04:35:30.674Z,0.27
2023-01-25T04:38:01.293Z,0.39
2023-01-25T04:40:39.077Z,0.49
2023-01-25T04:43:09.371Z,0.48
2023-01-25T04:45:38.274Z,0.47
2023-01-25T04:48:15.403Z,0.46
2023-01-25T04:50:51.455Z,0.42
2023-01-25T04:53:23.740Z,0.46
2023-01-25T04:55:54.388Z,0.45
2023-01-25T04:58:26.205Z,0.46
2023-01-25T05:00:56.016Z,0.45
2023-01-25T05:03:26.794Z,0.27
2023-01-25T05:05:56.890Z,0.50
2023-01-25T05:08:27.545Z,0.51
2023-01-25T05:11:01.437Z,0.52
2023-01-25T05:13:42.747Z,0.52
2023-01-25T05:16:20.829Z,0.51
2023-01-25T05:18:49.660Z,0.52
2023-01-25T05:21:36.933Z,0.48
2023-01-25T05:24:06.920Z,0.50
2023-01-25T05:26:47.541Z,0.43
2023-01-25T05:29:17.814Z,0.37
2023-01-25T05:31:59.228Z,0.34
2023-01-25T05:34:28.528Z,0.32
2023-01-25T05:36:58.022Z,0.24
2023-01-25T05:39:26.660Z,0.25
2023-01-25T05:41:56.435Z,0.08
2023-01-25T05:44:26.905Z,0.03
2023-01-25T05:46:56.525Z,0.05
2023-01-25T05:49:25.306Z,-0.04
2023-01-25T05:51:54.837Z,-0.01
2023-01-25T05:54:23.858Z,-0.07
2023-01-25T05:57:01.529Z,-0.11
2023-01-25T05:59:32.037Z,-0.11
2023-01-25T06:02:01.860Z,-0.07
2023-01-25T06:04:30.895Z,-0.08
2023-01-25T06:06:59.753Z,-0.09
2023-01-25T06:09:29.531Z,-0.11
2023-01-25T06:11:58.447Z,-0.13
2023-01-25T06:14:27.313Z,-0.17
2023-01-25T06:16:57.515Z,-0.18
2023-01-25T06:19:37.152Z,-0.22
2023-01-25T06:22:20.631Z,-0.34
2023-01-25T06:24:49.494Z,-0.26
2023-01-25T06:27:18.161Z,-0.43
2023-01-25T06:29:46.853Z,-0.29
2023-01-25T06:32:16.937Z,-0.32
2023-01-25T06:34:46.530Z,-0.33
2023-01-25T06:37:23.214Z,-0.47
2023-01-25T06:39:52.085Z,-0.51
2023-01-25T06:42:20.699Z,-0.57
2023-01-25T06:44:49.526Z,-0.51
2023-01-25T06:47:19.581Z,-0.41
2023-01-25T06:49:48.386Z,-0.42
2023-01-25T06:52:17.056Z,-0.40
2023-01-25T06:54:45.829Z,-0.30
2023-01-25T06:57:14.517Z,-0.28
2023-01-25T06:59:43.353Z,-0.01
2023-01-25T07:02:16.419Z,0.40
2023-01-25T07:04:46.721Z,0.72
2023-01-25T07:07:15.398Z,0.70
2023-01-25T07:09:44.087Z,0.70
2023-01-25T07:12:12.978Z,0.74
2023-01-25T07:14:42.276Z,0.65
2023-01-25T07:17:10.841Z,0.60
2023-01-25T07:19:39.517Z,0.64
2023-01-25T07:22:09.809Z,0.64
2023-01-25T07:24:38.708Z,0.72
2023-01-25T07:27:07.337Z,0.80
2023-01-25T07:29:36.168Z,0.97
2023-01-25T07:32:07.040Z,1.15
2023-01-25T07:34:36.008Z,1.32
2023-01-25T07:37:04.743Z,1.41
2023-01-25T07:39:34.951Z,1.49
2023-01-25T07:42:03.770Z,1.64
2023-01-25T07:44:34.236Z,1.76
2023-01-25T07:47:13.628Z,1.86
2023-01-25T07:49:43.029Z,1.88
2023-01-25T07:52:12.012Z,2.01
2023-01-25T07:54:42.183Z,2.06
2023-01-25T07:57:11.246Z,2.12
2023-01-25T07:59:39.930Z,2.12
2023-01-25T08:02:11.769Z,2.17
2023-01-25T08:04:42.627Z,2.23
2023-01-25T08:07:11.414Z,2.13
2023-01-25T08:09:41.941Z,2.07
2023-01-25T08:12:10.739Z,2.14
2023-01-25T08:14:39.459Z,2.27
2023-01-25T08:17:08.265Z,2.42
2023-01-25T08:19:37.150Z,2.55
2023-01-25T08:22:08.357Z,2.71
2023-01-25T08:24:37.109Z,2.77
2023-01-25T08:27:07.246Z,2.71
2023-01-25T08:29:36.350Z,2.65
2023-01-25T08:32:06.408Z,2.64
2023-01-25T08:34:35.226Z,2.62
2023-01-25T08:37:04.020Z,2.61
2023-01-25T08:39:32.757Z,2.59
2023-01-25T08:42:01.520Z,2.60
2023-01-25T08:44:31.827Z,2.64
2023-01-25T08:47:00.527Z,2.81
2023-01-25T08:49:31.521Z,2.94
2023-01-25T08:52:00.287Z,2.93
2023-01-25T08:54:29.160Z,2.79
2023-01-25T08:57:00.461Z,2.86
2023-01-25T08:59:29.292Z,2.92
2023-01-25T09:01:59.335Z,2.88
2023-01-25T09:04:28.665Z,2.86
2023-01-25T09:06:57.611Z,2.91
2023-01-25T09:09:26.413Z,2.75
2023-01-25T09:11:55.158Z,2.64
2023-01-25T09:14:24.126Z,2.50
2023-01-25T09:16:52.956Z,2.49
2023-01-25T09:19:23.195Z,2.29
2023-01-25T09:21:52.015Z,2.15
2023-01-25T09:24:20.857Z,2.04
2023-01-25T09:26:59.119Z,1.87
2023-01-25T09:29:28.729Z,1.75
2023-01-25T09:31:57.548Z,1.52
2023-01-25T09:34:34.318Z,1.39
2023-01-25T09:37:03.126Z,1.22
2023-01-25T09:39:32.058Z,1.22
2023-01-25T09:42:35.835Z,1.06
2023-01-25T09:45:23.513Z,1.33
2023-01-25T09:47:59.503Z,1.58
2023-01-25T09:50:39.686Z,1.68
2023-01-25T09:53:25.630Z,1.70
2023-01-25T09:55:59.575Z,1.63
2023-01-25T09:58:35.384Z,1.50
2023-01-25T10:01:21.797Z,1.34
2023-01-25T10:04:00.100Z,1.28
2023-01-25T10:06:55.123Z,1.40
2023-01-25T10:09:35.613Z,1.50
2023-01-25T10:12:15.576Z,1.60
2023-01-25T10:14:44.643Z,1.55
2023-01-25T10:17:29.048Z,1.42
2023-01-25T10:20:15.692Z,1.51
2023-01-25T10:22:52.555Z,1.59
2023-01-25T10:25:30.028Z,1.69
2023-01-25T10:28:10.382Z,1.52
2023-01-25T10:30:47.585Z,1.62
2023-01-25T10:33:21.441Z,1.52
2023-01-25T10:35:51.836Z,1.56
2023-01-25T10:38:27.620Z,1.58
2023-01-25T10:41:03.987Z,1.64
2023-01-25T10:43:32.737Z,1.65
2023-01-25T10:46:01.392Z,1.55
2023-01-25T10:48:35.557Z,1.43
2023-01-25T10:51:04.337Z,1.43
2023-01-25T10:53:36.947Z,1.21
2023-01-25T10:56:25.397Z,1.38
2023-01-25T10:59:07.102Z,1.35
2023-01-25T11:01:37.607Z,1.40
2023-01-25T11:04:25.151Z,1.45
2023-01-25T11:06:53.854Z,1.45
2023-01-25T11:09:38.103Z,1.41
2023-01-25T11:12:19.283Z,1.42
2023-01-25T11:14:51.036Z,1.43
2023-01-25T11:17:27.261Z,1.45
2023-01-25T11:20:21.920Z,1.48
2023-01-25T11:22:53.088Z,1.51
2023-01-25T11:25:32.342Z,1.52
2023-01-25T11:28:20.214Z,1.49
2023-01-25T11:30:49.690Z,1.50
2023-01-25T11:33:20.538Z,1.53
2023-01-25T11:36:06.667Z,1.54
2023-01-25T11:38:35.611Z,1.49
2023-01-25T11:41:14.389Z,1.51
2023-01-25T11:43:56.542Z,1.48
2023-01-25T11:46:39.663Z,1.46
2023-01-25T11:49:20.222Z,1.43
2023-01-25T11:51:53.444Z,1.49
2023-01-25T11:54:44.091Z,1.49
2023-01-25T11:57:30.904Z,1.53
2023-01-25T12:00:16.119Z,1.52
2023-01-25T12:03:14.878Z,1.53
2023-01-25T12:05:59.412Z,1.52
2023-01-25T12:08:51.786Z,1.52
2023-01-25T12:11:35.987Z,1.53
2023-01-25T12:14:15.659Z,1.47
2023-01-25T12:16:53.466Z,1.44
2023-01-25T12:19:43.780Z,1.50
2023-01-25T12:22:26.564Z,1.50
2023-01-25T12:25:04.545Z,1.47
2023-01-25T12:27:48.600Z,1.51
2023-01-25T12:30:28.100Z,1.64
2023-01-25T12:33:13.866Z,1.70
2023-01-25T12:35:51.234Z,1.69
2023-01-25T12:38:28.477Z,1.65
2023-01-25T12:41:01.680Z,1.69
2023-01-25T12:43:35.239Z,1.74
2023-01-25T12:46:14.708Z,1.72
2023-01-25T12:48:49.049Z,1.72
2023-01-25T12:51:20.650Z,1.73
2023-01-25T12:53:52.248Z,1.81
2023-01-25T12:56:33.500Z,1.83
2023-01-25T12:59:09.390Z,1.84
2023-01-25T13:01:46.453Z,1.95
2023-01-25T13:04:31.645Z,1.99
2023-01-25T13:07:10.110Z,2.03
2023-01-25T13:09:49.659Z,2.09
2023-01-25T13:12:18.297Z,2.09
2023-01-25T13:14:47.009Z,2.06
2023-01-25T13:17:32.571Z,1.99
2023-01-25T13:20:02.576Z,2.03
2023-01-25T13:22:59.094Z,2.01
2023-01-25T13:25:28.865Z,1.96
2023-01-25T13:28:12.198Z,1.95
2023-01-25T13:30:53.592Z,1.97
2023-01-25T13:33:37.374Z,1.96
2023-01-25T13:36:27.789Z,1.97
2023-01-25T13:38:56.770Z,1.98
2023-01-25T13:41:25.409Z,1.94
2023-01-25T13:44:28.561Z,1.93
2023-01-25T13:46:58.727Z,1.88
2023-01-25T13:49:36.119Z,1.82
2023-01-25T13:52:05.972Z,1.77
2023-01-25T13:54:35.220Z,1.78
2023-01-25T13:57:13.568Z,1.82
2023-01-25T13:59:43.648Z,1.78
2023-01-25T14:02:20.007Z,1.74
2023-01-25T14:04:52.453Z,1.73
2023-01-25T14:07:26.256Z,1.67
2023-01-25T14:09:55.186Z,1.65
2023-01-25T14:12:35.888Z,1.66
2023-01-25T14:15:21.347Z,1.66
2023-01-25T14:18:05.913Z,1.63
2023-01-25T14:20:36.539Z,1.59
2023-01-25T14:23:08.617Z,1.31
2023-01-25T14:25:41.717Z,1.45
2023-01-25T14:28:16.050Z,1.41
2023-01-25T14:30:45.086Z,1.39
2023-01-25T14:33:26.878Z,1.32
2023-01-25T14:36:24.071Z,1.27
2023-01-25T14:38:54.539Z,1.07
2023-01-25T14:41:29.779Z,1.21
2023-01-25T14:44:00.788Z,1.19
2023-01-25T14:46:32.179Z,1.20
2023-01-25T14:49:25.661Z,1.22
2023-01-25T14:52:05.449Z,1.28
2023-01-25T14:54:37.597Z,1.34
2023-01-25T14:57:08.928Z,1.38
2023-01-25T14:59:39.160Z,1.42
2023-01-25T15:02:25.302Z,1.41
2023-01-25T15:05:10.999Z,1.41
2023-01-25T15:07:48.050Z,1.39
2023-01-25T15:10:21.039Z,1.38
2023-01-25T15:13:12.850Z,1.37
2023-01-25T15:15:53.703Z,1.40
2023-01-25T15:18:45.100Z,1.41
2023-01-25T15:21:15.578Z,1.44
2023-01-25T15:23:47.748Z,1.45
2023-01-25T15:26:20.960Z,1.44
2023-01-25T15:28:50.343Z,1.41
2023-01-25T15:31:20.458Z,1.40
2023-01-25T15:33:49.359Z,1.37
2023-01-25T15:36:18.802Z,1.34
2023-01-25T15:38:49.075Z,1.30
2023-01-25T15:41:18.794Z,1.29
2023-01-25T15:43:47.704Z,1.28
2023-01-25T15:46:20.280Z,1.27
2023-01-25T15:48:50.988Z,1.29
2023-01-25T15:51:20.308Z,1.28
2023-01-25T15:53:50.551Z,1.32
2023-01-25T15:56:21.688Z,1.32
2023-01-25T15:58:53.518Z,1.33
2023-01-25T16:01:23.168Z,1.35
2023-01-25T16:03:52.711Z,1.35
2023-01-25T16:06:40.324Z,1.33
2023-01-25T16:09:19.911Z,1.35
2023-01-25T16:11:48.769Z,1.37
2023-01-25T16:14:17.484Z,1.35
2023-01-25T16:16:49.479Z,1.36
2023-01-25T16:19:20.120Z,1.40
2023-01-25T16:21:49.258Z,1.35
2023-01-25T16:24:20.154Z,1.40
2023-01-25T16:26:52.404Z,1.41
2023-01-25T16:29:23.118Z,1.41
2023-01-25T16:31:52.307Z,1.43
2023-01-25T16:34:22.322Z,1.43
2023-01-25T16:36:51.547Z,1.41
2023-01-25T16:39:23.576Z,1.40
2023-01-25T16:41:52.927Z,1.41
2023-01-25T16:44:21.675Z,1.40
2023-01-25T16:46:50.579Z,1.38
2023-01-25T16:49:21.098Z,1.38
2023-01-25T16:51:50.717Z,1.39
2023-01-25T16:54:20.763Z,1.40
2023-01-25T16:56:52.391Z,1.40
2023-01-25T16:59:23.301Z,1.41
2023-01-25T17:01:52.572Z,1.45
2023-01-25T17:04:21.415Z,1.46
2023-01-25T17:06:53.225Z,1.45
2023-01-25T17:09:24.522Z,1.46
2023-01-25T17:11:56.731Z,1.48
2023-01-25T17:14:25.515Z,1.50
2023-01-25T17:16:56.761Z,1.52
2023-01-25T17:19:25.613Z,1.50
2023-01-25T17:21:54.311Z,1.49
2023-01-25T17:24:23.287Z,1.48
2023-01-25T17:26:53.270Z,1.49
2023-01-25T17:29:23.475Z,1.48
2023-01-25T17:31:52.689Z,1.49
2023-01-25T17:34:22.184Z,1.46
2023-01-25T17:36:51.854Z,1.48
2023-01-25T17:39:21.035Z,1.46
2023-01-25T17:41:51.676Z,1.41
2023-01-25T17:44:24.807Z,1.44
2023-01-25T17:46:54.371Z,1.40
2023-01-25T17:49:24.938Z,1.38
2023-01-25T17:51:53.870Z,1.39
2023-01-25T17:54:22.567Z,1.40
2023-01-25T17:56:51.350Z,1.42
2023-01-25T17:59:20.016Z,1.44
2023-01-25T18:01:50.705Z,1.46
2023-01-25T18:04:20.767Z,1.52
2023-01-25T18:06:49.441Z,1.55
2023-01-25T18:09:18.250Z,1.63
2023-01-25T18:11:48.102Z,1.66
2023-01-25T18:14:17.215Z,1.71
2023-01-25T18:16:46.238Z,1.74
2023-01-25T18:19:16.492Z,1.79
2023-01-25T18:21:45.602Z,1.79
2023-01-25T18:24:27.439Z,1.67
2023-01-25T18:27:02.511Z,1.90
2023-01-25T18:29:46.782Z,1.82
2023-01-25T18:32:16.067Z,1.77
2023-01-25T18:34:48.868Z,1.74
2023-01-25T18:37:23.490Z,1.65
2023-01-25T18:39:54.158Z,1.65
2023-01-25T18:42:25.357Z,1.57
2023-01-25T18:44:54.232Z,1.54
2023-01-25T18:47:24.264Z,1.52
2023-01-25T18:49:54.848Z,1.50
2023-01-25T18:52:25.258Z,1.47
2023-01-25T18:54:54.073Z,1.48
2023-01-25T18:57:22.783Z,1.47
2023-01-25T18:59:51.704Z,1.49
2023-01-25T19:02:20.822Z,1.49
2023-01-25T19:04:49.996Z,1.49
2023-01-25T19:07:20.172Z,1.51
2023-01-25T19:09:49.031Z,1.54
2023-01-25T19:12:17.796Z,1.60
2023-01-25T19:14:46.633Z,1.60
2023-01-25T19:17:15.317Z,1.60
2023-01-25T19:19:44.330Z,1.59
2023-01-25T19:22:13.040Z,1.59
2023-01-25T19:24:43.281Z,1.61
2023-01-25T19:27:12.301Z,1.63
2023-01-25T19:29:41.462Z,1.65
2023-01-25T19:32:11.054Z,1.65
2023-01-25T19:34:40.055Z,1.66
2023-01-25T19:37:08.825Z,1.67
2023-01-25T19:39:37.590Z,1.67
2023-01-25T19:42:08.103Z,1.67
2023-01-25T19:44:36.994Z,1.68
2023-01-25T19:47:05.790Z,1.63
2023-01-25T19:49:34.543Z,1.71
2023-01-25T19:52:03.618Z,1.73
2023-01-25T19:54:32.593Z,1.73
2023-01-25T19:57:01.344Z,1.74
2023-01-25T19:59:31.799Z,1.74
2023-01-25T20:02:00.581Z,1.72
2023-01-25T20:04:29.367Z,1.78
2023-01-25T20:06:58.132Z,1.78
2023-01-25T20:09:28.616Z,1.81
2023-01-25T20:11:58.939Z,1.83
2023-01-25T20:14:27.748Z,1.83
2023-01-25T20:16:57.937Z,1.81
2023-01-25T20:19:27.185Z,1.84
2023-01-25T20:21:55.964Z,1.81
2023-01-25T20:24:24.823Z,1.83
2023-01-25T20:26:53.615Z,1.83
2023-01-25T20:29:24.193Z,1.81
2023-01-25T20:31:54.728Z,1.85
2023-01-25T20:34:25.335Z,1.87
2023-01-25T20:36:55.489Z,1.87
2023-01-25T20:39:24.501Z,1.86
2023-01-25T20:41:53.799Z,1.87
2023-01-25T20:44:23.071Z,1.86
2023-01-25T20:46:54.492Z,1.81
2023-01-25T20:49:24.931Z,1.84
2023-01-25T20:51:53.951Z,1.80
2023-01-25T20:54:22.681Z,1.77
2023-01-25T20:56:52.488Z,1.78
2023-01-25T20:59:21.266Z,1.74
2023-01-25T21:01:50.975Z,1.76
2023-01-25T21:04:19.869Z,1.75
2023-01-25T21:06:49.992Z,1.76
2023-01-25T21:09:18.910Z,1.73
2023-01-25T21:11:47.655Z,1.68
2023-01-25T21:14:16.670Z,1.68
2023-01-25T21:16:45.459Z,1.70
2023-01-25T21:19:14.312Z,1.68
2023-01-25T21:21:43.033Z,1.69
2023-01-25T21:24:13.248Z,1.64
2023-01-25T21:26:42.373Z,1.65
2023-01-25T21:29:11.100Z,1.65
2023-01-25T21:31:42.860Z,1.67
2023-01-25T21:34:12.052Z,1.67
2023-01-25T21:36:40.714Z,1.67
2023-01-25T21:39:09.607Z,1.68
2023-01-25T21:41:39.729Z,1.69
2023-01-25T21:44:18.481Z,1.71
2023-01-25T21:47:12.554Z,1.72
2023-01-25T21:49:46.542Z,1.67
2023-01-25T21:52:15.571Z,1.67
2023-01-25T21:54:44.276Z,1.68
2023-01-25T21:57:14.469Z,1.60
2023-01-25T21:59:43.189Z,1.67
2023-01-25T22:02:14.583Z,1.68
2023-01-25T22:04:43.525Z,1.66
2023-01-25T22:07:12.893Z,1.66
2023-01-25T22:09:41.746Z,1.68
2023-01-25T22:12:12.517Z,1.63
2023-01-25T22:14:42.805Z,1.67
2023-01-25T22:17:11.588Z,1.69
2023-01-25T22:19:40.272Z,1.69
2023-01-25T22:22:09.122Z,1.69
2023-01-25T22:24:37.821Z,1.69
2023-01-25T22:27:29.460Z,1.72
2023-01-25T22:29:59.652Z,1.69
2023-01-25T22:32:28.502Z,1.70
2023-01-25T22:34:57.324Z,1.73
2023-01-25T22:37:26.143Z,1.74
2023-01-25T22:39:58.529Z,1.72
2023-01-25T22:42:27.467Z,1.71
2023-01-25T22:44:56.134Z,1.71
2023-01-25T22:47:26.395Z,1.70
2023-01-25T22:49:55.220Z,1.70
2023-01-25T22:52:23.890Z,1.68
2023-01-25T22:54:53.059Z,1.69
2023-01-25T22:57:21.792Z,1.70
2023-01-25T22:59:50.574Z,1.71
2023-01-25T23:02:19.294Z,1.70
2023-01-25T23:04:49.511Z,1.68
2023-01-25T23:07:19.561Z,1.66
2023-01-25T23:09:51.782Z,1.69
2023-01-25T23:12:21.125Z,1.71
2023-01-25T23:14:54.340Z,1.73
2023-01-25T23:17:35.421Z,1.74
2023-01-25T23:20:06.812Z,1.75
2023-01-25T23:22:35.659Z,1.67
2023-01-25T23:25:05.169Z,1.66
2023-01-25T23:27:33.983Z,1.69
2023-01-25T23:30:02.691Z,1.70
2023-01-25T23:32:32.001Z,1.71
2023-01-25T23:35:01.562Z,1.72
2023-01-25T23:37:31.436Z,1.72
2023-01-25T23:40:00.160Z,1.68
2023-01-25T23:42:28.842Z,1.65
2023-01-25T23:44:57.652Z,1.64
2023-01-25T23:47:26.387Z,1.67
2023-01-25T23:49:55.582Z,1.67
2023-01-25T23:52:24.221Z,1.70
2023-01-25T23:54:54.454Z,1.68
2023-01-25T23:57:23.442Z,1.67
2023-01-25T23:59:52.183Z,1.68
